createdAt,value
2022-07-28T00:02:14.767Z,27.42
2022-07-28T00:04:43.041Z,27.09
2022-07-28T00:07:12.073Z,27.17
2022-07-28T00:09:40.050Z,26.90
2022-07-28T00:12:09.469Z,26.77
2022-07-28T00:14:37.655Z,27.14
2022-07-28T00:17:05.621Z,26.67
2022-07-28T00:19:34.567Z,26.57
2022-07-28T00:22:06.486Z,25.91
2022-07-28T00:24:34.978Z,26.28
2022-07-28T00:27:03.115Z,26.41
2022-07-28T00:29:49.856Z,26.55
2022-07-28T00:32:20.751Z,26.24
2022-07-28T00:34:53.671Z,26.37
2022-07-28T00:37:22.338Z,26.70
2022-07-28T00:39:50.386Z,26.69
2022-07-28T00:42:19.560Z,26.83
2022-07-28T00:44:47.749Z,26.77
2022-07-28T00:47:16.036Z,26.94
2022-07-28T00:49:45.102Z,27.12
2022-07-28T00:52:17.238Z,27.15
2022-07-28T00:54:45.732Z,27.16
2022-07-28T00:57:15.495Z,27.16
2022-07-28T00:59:43.556Z,27.29
2022-07-28T01:02:11.406Z,27.16
2022-07-28T01:04:40.613Z,27.18
2022-07-28T01:07:15.839Z,27.04
2022-07-28T01:09:58.575Z,27.07
2022-07-28T01:12:32.605Z,27.25
2022-07-28T01:15:13.263Z,27.27
2022-07-28T01:17:44.224Z,27.20
2022-07-28T01:20:19.373Z,27.08
2022-07-28T01:23:02.429Z,26.81
2022-07-28T01:25:48.473Z,26.89
2022-07-28T01:28:38.145Z,26.16
2022-07-28T01:31:09.837Z,26.36
2022-07-28T01:33:48.407Z,26.41
2022-07-28T01:36:31.714Z,26.37
2022-07-28T01:39:03.364Z,26.62
2022-07-28T01:41:38.469Z,26.86
2022-07-28T01:44:13.165Z,26.56
2022-07-28T01:46:44.586Z,26.61
2022-07-28T01:49:19.671Z,26.46
2022-07-28T01:51:51.106Z,26.75
2022-07-28T01:54:25.690Z,26.65
2022-07-28T01:56:57.152Z,26.41
2022-07-28T01:59:26.733Z,26.31
2022-07-28T02:01:56.423Z,26.31
2022-07-28T02:04:25.067Z,26.19
2022-07-28T02:06:54.339Z,26.16
2022-07-28T02:09:23.481Z,26.11
2022-07-28T02:11:53.574Z,25.91
2022-07-28T02:14:26.397Z,25.54
2022-07-28T02:16:57.808Z,25.52
2022-07-28T02:19:25.883Z,25.74
2022-07-28T02:21:54.960Z,25.01
2022-07-28T02:24:28.616Z,25.25
2022-07-28T02:27:00.988Z,25.45
2022-07-28T02:29:50.312Z,25.83
2022-07-28T02:32:34.499Z,25.53
2022-07-28T02:35:12.511Z,25.52
2022-07-28T02:37:44.685Z,25.76
2022-07-28T02:40:15.898Z,25.74
2022-07-28T02:42:46.896Z,25.18
2022-07-28T02:45:17.241Z,25.40
2022-07-28T02:47:49.003Z,24.99
2022-07-28T02:50:21.187Z,25.14
2022-07-28T02:52:50.059Z,25.02
2022-07-28T02:55:19.425Z,24.89
2022-07-28T02:57:50.968Z,24.78
2022-07-28T03:00:23.743Z,24.76
2022-07-28T03:02:53.797Z,24.78
2022-07-28T03:05:22.310Z,24.76
2022-07-28T03:07:52.942Z,24.68
2022-07-28T03:10:33.049Z,24.41
2022-07-28T03:13:03.771Z,24.27
2022-07-28T03:15:31.624Z,24.38
2022-07-28T03:18:01.492Z,24.12
2022-07-28T03:20:31.054Z,23.67
2022-07-28T03:22:59.588Z,23.45
2022-07-28T03:25:39.514Z,23.26
2022-07-28T03:28:09.428Z,23.94
2022-07-28T03:30:42.280Z,23.83
2022-07-28T03:33:12.032Z,24.14
2022-07-28T03:35:48.822Z,24.07
2022-07-28T03:38:23.851Z,24.28
2022-07-28T03:40:56.835Z,24.38
2022-07-28T03:43:26.697Z,24.51
2022-07-28T03:45:55.129Z,24.45
2022-07-28T03:48:29.646Z,24.41
2022-07-28T03:50:58.995Z,24.72
2022-07-28T03:53:28.922Z,24.65
2022-07-28T03:55:57.673Z,24.63
2022-07-28T03:58:28.933Z,24.70
2022-07-28T04:00:57.675Z,24.60
2022-07-28T04:03:37.656Z,24.67
2022-07-28T04:06:13.291Z,24.79
2022-07-28T04:08:43.786Z,24.85
2022-07-28T04:11:11.833Z,24.99
2022-07-28T04:13:40.052Z,25.11
2022-07-28T04:16:09.369Z,25.09
2022-07-28T04:18:37.405Z,25.17
2022-07-28T04:21:07.709Z,25.01
2022-07-28T04:23:36.217Z,25.19
2022-07-28T04:26:04.486Z,25.31
2022-07-28T04:28:33.071Z,25.33
2022-07-28T04:31:01.217Z,25.42
2022-07-28T04:33:30.771Z,25.35
2022-07-28T04:36:01.727Z,25.10
2022-07-28T04:38:30.884Z,24.99
2022-07-28T04:40:59.636Z,25.28
2022-07-28T04:43:27.927Z,25.39
2022-07-28T04:45:56.568Z,25.09
2022-07-28T04:48:25.147Z,25.09
2022-07-28T04:50:53.462Z,24.96
2022-07-28T04:53:24.436Z,24.62
2022-07-28T04:55:54.610Z,25.01
2022-07-28T04:58:24.496Z,25.02
2022-07-28T05:00:52.713Z,25.41
2022-07-28T05:03:21.349Z,25.41
2022-07-28T05:05:54.324Z,25.45
2022-07-28T05:08:25.781Z,25.50
2022-07-28T05:10:56.840Z,25.45
2022-07-28T05:13:33.265Z,25.63
2022-07-28T05:16:03.465Z,25.23
2022-07-28T05:18:31.986Z,25.55
2022-07-28T05:21:00.196Z,25.65
2022-07-28T05:23:29.310Z,25.64
2022-07-28T05:25:57.067Z,25.65
2022-07-28T05:28:27.390Z,25.97
2022-07-28T05:31:03.572Z,25.68
2022-07-28T05:33:39.951Z,26.01
2022-07-28T05:36:40.054Z,26.17
2022-07-28T05:39:08.361Z,26.42
2022-07-28T05:41:36.778Z,26.53
2022-07-28T05:44:05.123Z,26.67
2022-07-28T05:46:33.284Z,26.81
2022-07-28T05:49:06.376Z,26.93
2022-07-28T05:51:41.556Z,26.92
2022-07-28T05:54:10.459Z,26.91
2022-07-28T05:56:38.521Z,26.97
2022-07-28T05:59:10.288Z,27.27
2022-07-28T06:01:46.275Z,27.29
2022-07-28T06:04:28.634Z,27.37
2022-07-28T06:07:22.478Z,27.37
2022-07-28T06:10:13.110Z,27.25
2022-07-28T06:12:56.789Z,27.33
2022-07-28T06:15:28.626Z,27.25
2022-07-28T06:17:57.298Z,27.31
2022-07-28T06:20:45.071Z,27.26
2022-07-28T06:28:37.580Z,27.37
2022-07-28T06:36:03.720Z,27.31
2022-07-28T06:45:54.678Z,27.63
2022-07-28T06:54:59.402Z,27.91
2022-07-28T06:57:33.589Z,28.21
2022-07-28T07:00:04.213Z,28.36
2022-07-28T07:02:37.432Z,28.10
2022-07-28T07:05:06.937Z,28.46
2022-07-28T07:07:37.415Z,28.11
2022-07-28T07:10:08.651Z,28.27
2022-07-28T07:12:45.319Z,28.31
2022-07-28T07:15:16.317Z,28.54
2022-07-28T07:17:44.037Z,28.64
2022-07-28T07:20:14.445Z,28.96
2022-07-28T07:22:47.124Z,28.75
2022-07-28T07:25:19.434Z,29.12
2022-07-28T07:27:52.746Z,29.41
2022-07-28T07:30:21.356Z,29.64
2022-07-28T07:32:50.379Z,29.75
2022-07-28T07:35:19.569Z,29.65
2022-07-28T07:38:04.840Z,29.67
2022-07-28T07:41:04.446Z,29.80
2022-07-28T07:43:42.365Z,29.86
2022-07-28T07:46:22.164Z,29.73
2022-07-28T07:49:02.430Z,29.95
2022-07-28T07:51:31.043Z,29.99
2022-07-28T07:53:59.624Z,29.72
2022-07-28T07:56:28.000Z,29.87
2022-07-28T07:58:57.212Z,29.94
2022-07-28T08:01:26.199Z,29.93
2022-07-28T08:03:55.071Z,29.90
2022-07-28T08:06:26.568Z,30.12
2022-07-28T08:08:56.478Z,30.15
2022-07-28T08:11:24.953Z,29.98
2022-07-28T08:13:58.855Z,29.94
2022-07-28T08:16:29.170Z,29.97
2022-07-28T08:19:11.046Z,30.25
2022-07-28T08:21:46.832Z,30.40
2022-07-28T08:24:33.736Z,30.14
2022-07-28T08:27:20.640Z,30.52
2022-07-28T08:29:59.328Z,30.48
2022-07-28T08:32:41.618Z,30.59
2022-07-28T08:35:32.417Z,30.81
2022-07-28T08:38:06.520Z,30.82
2022-07-28T08:40:39.608Z,30.96
2022-07-28T08:43:21.143Z,31.17
2022-07-28T08:45:50.125Z,31.12
2022-07-28T08:48:23.667Z,31.14
2022-07-28T08:50:52.784Z,31.45
2022-07-28T08:53:31.502Z,31.28
2022-07-28T09:03:22.272Z,31.94
2022-07-28T09:05:54.144Z,32.04
2022-07-28T09:08:22.933Z,32.37
2022-07-28T09:10:51.992Z,32.57
2022-07-28T09:13:24.614Z,32.37
2022-07-28T09:20:17.569Z,32.39
2022-07-28T09:27:14.954Z,32.30
2022-07-28T09:30:15.810Z,32.18
2022-07-28T09:33:41.129Z,32.50
2022-07-28T09:36:31.240Z,32.30
2022-07-28T09:39:04.268Z,32.61
2022-07-28T09:41:49.626Z,32.91
2022-07-28T09:44:27.747Z,33.30
2022-07-28T09:47:28.263Z,33.28
2022-07-28T09:49:56.753Z,33.67
2022-07-28T09:52:32.421Z,33.56
2022-07-28T09:55:05.349Z,33.65
2022-07-28T09:57:36.348Z,33.36
2022-07-28T10:00:09.993Z,33.41
2022-07-28T10:02:47.933Z,33.58
2022-07-28T10:05:20.138Z,33.27
2022-07-28T10:07:52.636Z,33.59
2022-07-28T10:10:29.508Z,33.93
2022-07-28T10:13:06.247Z,33.85
2022-07-28T10:16:10.910Z,34.18
2022-07-28T10:18:42.891Z,34.60
2022-07-28T10:21:14.966Z,34.73
2022-07-28T10:24:09.556Z,34.90
2022-07-28T10:26:53.607Z,35.15
2022-07-28T10:29:22.702Z,35.09
2022-07-28T10:31:53.165Z,35.25
2022-07-28T10:34:31.926Z,35.38
2022-07-28T10:37:03.605Z,35.36
2022-07-28T10:39:40.387Z,35.57
2022-07-28T10:42:13.048Z,35.21
2022-07-28T10:44:48.458Z,35.44
2022-07-28T10:47:32.430Z,35.46
2022-07-28T10:50:08.836Z,35.89
2022-07-28T10:52:50.691Z,35.98
2022-07-28T10:55:43.653Z,35.99
2022-07-28T10:58:28.148Z,34.81
2022-07-28T11:00:59.917Z,34.13
2022-07-28T11:03:37.969Z,34.72
2022-07-28T11:06:26.059Z,35.15
2022-07-28T11:09:01.286Z,34.79
2022-07-28T11:11:48.580Z,34.88
2022-07-28T11:14:27.135Z,35.17
2022-07-28T11:17:15.142Z,35.35
2022-07-28T11:20:16.139Z,35.45
2022-07-28T11:23:28.614Z,35.30
2022-07-28T11:25:40.034Z,35.43
2022-07-28T11:28:08.470Z,35.59
2022-07-28T11:30:42.964Z,35.49
2022-07-28T12:11:36.715Z,34.58
2022-07-28T12:14:17.903Z,34.67
2022-07-28T12:16:50.966Z,34.69
2022-07-28T12:19:40.302Z,34.79
2022-07-28T12:22:31.652Z,34.73
2022-07-28T12:25:14.486Z,35.03
2022-07-28T12:28:01.972Z,34.95
2022-07-28T12:30:33.883Z,35.00
2022-07-28T12:33:03.750Z,34.97
2022-07-28T12:35:41.596Z,34.91
2022-07-28T12:38:14.331Z,35.27
2022-07-28T12:40:46.924Z,35.31
2022-07-28T12:43:30.832Z,35.37
2022-07-28T12:45:58.957Z,35.28
2022-07-28T12:48:28.809Z,35.14
2022-07-28T12:51:04.731Z,34.94
2022-07-28T12:53:35.875Z,35.08
2022-07-28T12:56:05.575Z,35.32
2022-07-28T12:58:34.794Z,35.19
2022-07-28T13:01:09.162Z,35.57
2022-07-28T13:03:50.621Z,35.42
2022-07-28T13:06:22.291Z,35.21
2022-07-28T13:08:54.466Z,35.10
2022-07-28T13:11:47.483Z,35.62
2022-07-28T13:14:16.637Z,35.80
2022-07-28T13:17:02.767Z,35.90
2022-07-28T13:19:31.023Z,36.14
2022-07-28T13:22:04.112Z,35.82
2022-07-28T13:24:35.333Z,36.01
2022-07-28T13:27:07.482Z,36.14
2022-07-28T13:29:35.594Z,36.35
2022-07-28T13:32:05.372Z,36.10
2022-07-28T13:34:34.615Z,36.08
2022-07-28T13:37:04.007Z,36.55
2022-07-28T13:39:38.686Z,36.60
2022-07-28T13:42:07.092Z,36.83
2022-07-28T13:44:39.278Z,36.84
2022-07-28T13:47:12.008Z,36.89
2022-07-28T13:49:46.108Z,36.83
2022-07-28T13:52:32.794Z,36.85
2022-07-28T13:55:06.357Z,36.78
2022-07-28T13:57:36.466Z,37.25
2022-07-28T14:00:07.919Z,37.28
2022-07-28T14:02:37.398Z,37.33
2022-07-28T14:05:06.151Z,37.46
2022-07-28T14:07:34.555Z,37.52
2022-07-28T14:10:03.140Z,37.15
2022-07-28T14:12:31.535Z,36.34
2022-07-28T14:15:00.239Z,36.49
2022-07-28T14:17:45.867Z,36.50
2022-07-28T14:20:15.134Z,36.25
2022-07-28T14:22:44.720Z,36.85
2022-07-28T14:25:19.426Z,36.77
2022-07-28T14:27:52.886Z,36.83
2022-07-28T14:30:21.744Z,36.85
2022-07-28T14:32:50.111Z,37.08
2022-07-28T14:35:18.753Z,37.17
2022-07-28T14:38:23.560Z,37.60
2022-07-28T14:40:39.991Z,37.26
2022-07-28T14:43:08.422Z,37.64
2022-07-28T14:46:09.274Z,37.57
2022-07-28T14:48:25.266Z,37.68
2022-07-28T14:50:55.543Z,37.92
2022-07-28T14:53:24.271Z,38.25
2022-07-28T14:55:56.761Z,38.15
2022-07-28T14:58:24.780Z,38.16
2022-07-28T15:00:52.802Z,37.61
2022-07-28T15:03:21.304Z,37.23
2022-07-28T15:05:49.209Z,37.50
2022-07-28T15:08:18.415Z,37.84
2022-07-28T15:10:50.147Z,37.85
2022-07-28T15:13:18.157Z,37.86
2022-07-28T15:15:46.852Z,38.07
2022-07-28T15:18:15.050Z,38.18
2022-07-28T15:20:43.687Z,38.02
2022-07-28T15:23:11.931Z,38.01
2022-07-28T15:25:39.751Z,37.71
2022-07-28T15:28:08.129Z,37.83
2022-07-28T15:30:36.375Z,38.07
2022-07-28T15:33:11.464Z,37.67
2022-07-28T15:35:56.503Z,37.67
2022-07-28T15:38:29.149Z,37.83
2022-07-28T15:40:59.056Z,37.50
2022-07-28T15:43:28.221Z,36.91
2022-07-28T15:45:58.867Z,36.82
2022-07-28T15:48:29.592Z,36.32
2022-07-28T15:51:00.677Z,36.49
2022-07-28T15:53:30.026Z,36.40
2022-07-28T15:55:58.765Z,36.46
2022-07-28T15:58:28.663Z,36.19
2022-07-28T16:00:56.800Z,36.18
2022-07-28T16:03:30.085Z,36.47
2022-07-28T16:05:59.003Z,36.60
2022-07-28T16:08:27.630Z,36.48
2022-07-28T16:10:56.595Z,36.40
2022-07-28T16:13:36.602Z,36.84
2022-07-28T16:16:11.468Z,36.80
2022-07-28T16:18:41.781Z,36.91
2022-07-28T16:21:13.337Z,36.84
2022-07-28T16:23:40.876Z,36.72
2022-07-28T16:26:09.489Z,36.94
2022-07-28T16:28:38.080Z,36.69
2022-07-28T16:31:06.334Z,36.74
2022-07-28T16:33:35.154Z,36.42
2022-07-28T16:36:04.332Z,36.69
2022-07-28T16:38:32.441Z,36.81
2022-07-28T16:41:00.783Z,36.65
2022-07-28T16:43:29.740Z,36.67
2022-07-28T16:45:57.725Z,36.79
2022-07-28T16:48:26.036Z,36.74
2022-07-28T16:50:54.123Z,36.68
2022-07-28T16:53:22.601Z,36.73
2022-07-28T16:55:51.032Z,36.98
2022-07-28T16:58:20.137Z,36.84
2022-07-28T17:00:48.270Z,36.93
2022-07-28T17:03:17.199Z,37.04
2022-07-28T17:05:45.524Z,36.98
2022-07-28T17:08:13.924Z,36.80
2022-07-28T17:10:42.191Z,36.59
2022-07-28T17:13:13.206Z,36.63
2022-07-28T17:15:41.023Z,36.65
2022-07-28T17:18:08.835Z,36.85
2022-07-28T17:20:40.009Z,36.37
2022-07-28T17:23:08.406Z,36.45
2022-07-28T17:28:25.411Z,36.18
2022-07-28T17:30:53.630Z,36.17
2022-07-28T17:33:21.741Z,36.28
2022-07-28T17:35:52.827Z,36.13
2022-07-28T17:38:28.290Z,35.88
2022-07-28T17:41:00.601Z,35.98
2022-07-28T17:43:29.162Z,35.91
2022-07-28T17:45:57.390Z,35.60
2022-07-28T17:48:26.234Z,35.79
2022-07-28T17:50:54.984Z,35.60
2022-07-28T17:53:23.919Z,35.48
2022-07-28T17:56:00.550Z,35.63
2022-07-28T17:58:32.316Z,35.48
2022-07-28T18:01:11.147Z,35.32
2022-07-28T18:03:59.836Z,35.33
2022-07-28T18:06:34.829Z,34.91
2022-07-28T18:09:07.852Z,35.10
2022-07-28T18:11:57.484Z,34.77
2022-07-28T18:14:27.737Z,34.71
2022-07-28T18:16:56.257Z,34.74
2022-07-28T18:19:24.130Z,34.68
2022-07-28T18:21:52.678Z,34.56
2022-07-28T18:24:22.757Z,34.33
2022-07-28T18:26:51.974Z,34.49
2022-07-28T18:29:21.609Z,34.25
2022-07-28T18:31:51.133Z,34.30
2022-07-28T18:34:20.847Z,34.26
2022-07-28T18:36:54.743Z,34.19
2022-07-28T18:39:25.346Z,34.05
2022-07-28T18:41:56.783Z,34.13
2022-07-28T18:44:24.763Z,34.12
2022-07-28T18:46:53.622Z,33.96
2022-07-28T18:49:21.822Z,33.92
2022-07-28T18:51:50.017Z,33.78
2022-07-28T18:54:25.130Z,33.83
2022-07-28T18:56:56.766Z,33.63
2022-07-28T18:59:25.572Z,33.46
2022-07-28T19:01:53.901Z,33.47
2022-07-28T19:04:22.103Z,33.42
2022-07-28T19:06:50.226Z,33.18
2022-07-28T19:09:18.324Z,33.20
2022-07-28T19:11:46.906Z,33.13
2022-07-28T19:14:16.164Z,33.24
2022-07-28T19:16:44.615Z,32.95
2022-07-28T19:19:13.573Z,33.02
2022-07-28T19:21:43.309Z,32.78
2022-07-28T19:24:15.796Z,32.77
2022-07-28T19:26:47.657Z,32.77
2022-07-28T19:29:16.053Z,32.42
2022-07-28T19:31:45.130Z,32.04
2022-07-28T19:34:13.848Z,31.85
2022-07-28T19:36:42.514Z,31.48
2022-07-28T19:39:12.338Z,31.54
2022-07-28T19:41:40.751Z,31.24
2022-07-28T19:44:09.642Z,31.17
2022-07-28T19:46:39.431Z,31.05
2022-07-28T19:49:08.321Z,30.83
2022-07-28T19:51:40.384Z,30.90
2022-07-28T19:54:08.911Z,31.09
2022-07-28T19:56:39.672Z,31.24
2022-07-28T19:59:08.051Z,31.12
2022-07-28T20:01:36.183Z,31.46
2022-07-28T20:04:16.201Z,31.30
2022-07-28T20:06:44.403Z,31.16
2022-07-28T20:09:13.849Z,31.29
2022-07-28T20:11:43.690Z,31.19
2022-07-28T20:14:11.593Z,30.83
2022-07-28T20:16:40.656Z,30.95
2022-07-28T20:19:12.335Z,31.13
2022-07-28T20:21:42.115Z,30.90
2022-07-28T20:24:13.214Z,30.83
2022-07-28T20:26:43.552Z,31.01
2022-07-28T20:29:15.122Z,30.88
2022-07-28T20:31:44.189Z,30.69
2022-07-28T20:34:15.295Z,30.09
2022-07-28T20:36:45.298Z,29.86
2022-07-28T20:39:42.186Z,29.64
2022-07-28T20:42:02.545Z,29.51
2022-07-28T20:44:31.540Z,29.52
2022-07-28T20:47:00.789Z,29.91
2022-07-28T20:49:29.709Z,30.01
2022-07-28T20:51:58.872Z,29.87
2022-07-28T20:54:27.206Z,29.94
2022-07-28T20:56:55.575Z,29.78
2022-07-28T20:59:27.645Z,29.80
2022-07-28T21:01:56.981Z,29.24
2022-07-28T21:04:26.565Z,29.51
2022-07-28T21:07:01.746Z,29.21
2022-07-28T21:09:31.932Z,29.23
2022-07-28T21:12:00.346Z,29.28
2022-07-28T21:14:28.428Z,28.95
2022-07-28T21:16:57.254Z,29.17
2022-07-28T21:19:25.481Z,29.18
2022-07-28T21:21:53.508Z,29.05
2022-07-28T21:24:22.316Z,28.94
2022-07-28T21:26:51.747Z,29.03
2022-07-28T21:32:04.771Z,29.06
2022-07-28T21:34:35.435Z,29.24
2022-07-28T21:37:05.033Z,29.24
2022-07-28T21:39:34.245Z,29.43
2022-07-28T21:42:07.578Z,29.03
2022-07-28T21:44:37.564Z,29.04
2022-07-28T21:47:06.278Z,29.26
2022-07-28T21:49:34.487Z,29.20
2022-07-28T21:52:02.967Z,29.09
2022-07-28T21:54:31.754Z,29.18
2022-07-28T21:57:00.085Z,28.79
2022-07-28T21:59:28.070Z,28.54
2022-07-28T22:01:57.786Z,28.25
2022-07-28T22:04:27.421Z,28.07
2022-07-28T22:06:55.562Z,28.19
2022-07-28T22:09:24.123Z,28.45
2022-07-28T22:11:53.629Z,28.59
2022-07-28T22:14:26.472Z,28.40
2022-07-28T22:16:55.543Z,28.41
2022-07-28T22:19:26.298Z,28.20
2022-07-28T22:22:01.607Z,27.97
2022-07-28T22:24:32.645Z,28.03
2022-07-28T22:27:04.191Z,27.71
2022-07-28T22:29:33.320Z,27.86
2022-07-28T22:32:08.053Z,27.79
2022-07-28T22:34:39.499Z,27.87
2022-07-28T22:37:13.359Z,27.96
2022-07-28T22:39:44.178Z,27.75
2022-07-28T22:42:16.963Z,27.63
2022-07-28T22:44:47.427Z,27.63
2022-07-28T22:47:20.292Z,27.53
2022-07-28T22:49:53.670Z,27.19
2022-07-28T22:52:28.867Z,26.91
2022-07-28T22:54:59.436Z,27.25
2022-07-28T22:57:34.316Z,27.20
2022-07-28T23:00:09.379Z,27.24
2022-07-28T23:02:40.593Z,27.03
2022-07-28T23:05:10.619Z,27.32
2022-07-28T23:07:52.835Z,27.36
2022-07-28T23:10:27.760Z,27.05
2022-07-28T23:12:58.812Z,27.07
2022-07-28T23:15:40.657Z,27.05
2022-07-28T23:18:14.307Z,27.00
2022-07-28T23:20:45.837Z,27.04
2022-07-28T23:23:18.945Z,26.87
2022-07-28T23:25:48.376Z,26.83
2022-07-28T23:28:18.874Z,26.79
2022-07-28T23:30:51.764Z,26.51
2022-07-28T23:33:56.700Z,26.61
2022-07-28T23:36:25.828Z,26.08
2022-07-28T23:39:00.264Z,26.33
2022-07-28T23:41:29.232Z,26.48
2022-07-28T23:43:58.088Z,26.55
2022-07-28T23:46:26.107Z,26.47
2022-07-28T23:48:54.196Z,26.44
2022-07-28T23:51:46.578Z,26.22
2022-07-28T23:54:11.100Z,26.37
2022-07-28T23:56:43.866Z,25.94
2022-07-28T23:59:14.089Z,26.27
